sensor_id;sensor_type;location;lat;lon;timestamp;P1;durP1;ratioP1;P2;durP2;ratioP2
17595;SDS011;8916;47.086;15.920;2022-11-15T17:36:58;52.05;;;27.92;;
17595;SDS011;8916;47.086;15.920;2022-11-15T17:39:27;60.90;;;29.73;;
17595;SDS011;8916;47.086;15.920;2022-11-15T17:41:57;58.45;;;29.38;;
17595;SDS011;8916;47.086;15.920;2022-11-15T17:44:26;58.28;;;31.17;;
17595;SDS011;8916;47.086;15.920;2022-11-15T17:46:57;58.22;;;30.33;;
17595;SDS011;8916;47.086;15.920;2022-11-15T17:49:26;60.85;;;30.73;;
17595;SDS011;8916;47.086;15.920;2022-11-15T17:51:55;56.42;;;30.25;;
17595;SDS011;8916;47.086;15.920;2022-11-15T17:54:26;58.72;;;30.15;;
17595;SDS011;8916;47.086;15.920;2022-11-15T17:56:55;51.95;;;27.58;;
17595;SDS011;8916;47.086;15.920;2022-11-15T17:59:24;53.67;;;28.55;;
17595;SDS011;8916;47.086;15.920;2022-11-15T18:01:54;56.05;;;29.27;;
17595;SDS011;8916;47.086;15.920;2022-11-15T18:04:23;56.25;;;29.58;;
17595;SDS011;8916;47.086;15.920;2022-11-15T18:06:54;58.45;;;30.55;;
17595;SDS011;8916;47.086;15.920;2022-11-15T18:09:25;58.38;;;30.90;;
17595;SDS011;8916;47.086;15.920;2022-11-15T18:11:54;62.47;;;31.20;;
17595;SDS011;8916;47.086;15.920;2022-11-15T18:14:25;67.97;;;31.52;;
17595;SDS011;8916;47.086;15.920;2022-11-15T18:16:57;58.40;;;30.85;;
17595;SDS011;8916;47.086;15.920;2022-11-15T18:19:26;59.40;;;30.65;;
17595;SDS011;8916;47.086;15.920;2022-11-15T18:21:56;58.55;;;30.73;;
17595;SDS011;8916;47.086;15.920;2022-11-15T18:24:27;62.05;;;30.25;;
17595;SDS011;8916;47.086;15.920;2022-11-15T18:26:58;68.78;;;32.75;;
17595;SDS011;8916;47.086;15.920;2022-11-15T18:29:28;67.22;;;32.03;;
17595;SDS011;8916;47.086;15.920;2022-11-15T18:31:58;70.07;;;32.80;;
17595;SDS011;8916;47.086;15.920;2022-11-15T18:34:31;67.90;;;31.38;;
17595;SDS011;8916;47.086;15.920;2022-11-15T18:37:00;66.63;;;31.75;;
17595;SDS011;8916;47.086;15.920;2022-11-15T18:39:31;64.45;;;32.50;;
17595;SDS011;8916;47.086;15.920;2022-11-15T18:42:00;58.35;;;31.20;;
17595;SDS011;8916;47.086;15.920;2022-11-15T18:44:30;62.28;;;31.58;;
17595;SDS011;8916;47.086;15.920;2022-11-15T18:46:59;63.95;;;32.15;;
17595;SDS011;8916;47.086;15.920;2022-11-15T18:49:28;65.22;;;32.17;;
17595;SDS011;8916;47.086;15.920;2022-11-15T18:51:57;63.25;;;32.17;;
17595;SDS011;8916;47.086;15.920;2022-11-15T18:54:28;65.95;;;31.90;;
17595;SDS011;8916;47.086;15.920;2022-11-15T18:56:59;67.72;;;32.08;;
17595;SDS011;8916;47.086;15.920;2022-11-15T18:59:28;68.70;;;32.80;;
17595;SDS011;8916;47.086;15.920;2022-11-15T19:01:57;74.60;;;34.03;;
17595;SDS011;8916;47.086;15.920;2022-11-15T19:04:27;66.97;;;31.55;;
17595;SDS011;8916;47.086;15.920;2022-11-15T19:06:57;69.40;;;34.67;;
17595;SDS011;8916;47.086;15.920;2022-11-15T19:09:26;67.88;;;32.97;;
17595;SDS011;8916;47.086;15.920;2022-11-15T19:12:00;67.85;;;33.30;;
17595;SDS011;8916;47.086;15.920;2022-11-15T19:14:29;71.00;;;33.35;;
17595;SDS011;8916;47.086;15.920;2022-11-15T19:16:59;79.13;;;35.20;;
17595;SDS011;8916;47.086;15.920;2022-11-15T19:19:29;77.03;;;35.35;;
17595;SDS011;8916;47.086;15.920;2022-11-15T19:22:01;75.45;;;35.08;;
17595;SDS011;8916;47.086;15.920;2022-11-15T19:24:31;69.68;;;33.97;;
17595;SDS011;8916;47.086;15.920;2022-11-15T19:27:02;76.70;;;35.10;;
17595;SDS011;8916;47.086;15.920;2022-11-15T19:29:31;77.18;;;35.45;;
17595;SDS011;8916;47.086;15.920;2022-11-15T19:32:00;76.28;;;35.75;;
17595;SDS011;8916;47.086;15.920;2022-11-15T19:34:31;68.05;;;31.27;;
17595;SDS011;8916;47.086;15.920;2022-11-15T19:37:03;82.10;;;36.60;;
17595;SDS011;8916;47.086;15.920;2022-11-15T19:39:32;78.40;;;34.33;;
17595;SDS011;8916;47.086;15.920;2022-11-15T19:42:08;77.30;;;35.42;;
17595;SDS011;8916;47.086;15.920;2022-11-15T19:44:38;93.10;;;38.05;;
17595;SDS011;8916;47.086;15.920;2022-11-15T19:47:07;78.18;;;35.05;;
17595;SDS011;8916;47.086;15.920;2022-11-15T19:49:37;74.53;;;35.30;;
17595;SDS011;8916;47.086;15.920;2022-11-15T19:52:07;78.85;;;36.63;;
17595;SDS011;8916;47.086;15.920;2022-11-15T19:54:36;78.88;;;34.65;;
17595;SDS011;8916;47.086;15.920;2022-11-15T19:57:05;81.18;;;34.17;;
17595;SDS011;8916;47.086;15.920;2022-11-15T19:59:36;78.38;;;33.08;;
17595;SDS011;8916;47.086;15.920;2022-11-15T20:02:07;77.88;;;33.50;;
17595;SDS011;8916;47.086;15.920;2022-11-15T20:04:38;81.25;;;34.47;;
17595;SDS011;8916;47.086;15.920;2022-11-15T20:07:07;78.40;;;35.13;;
17595;SDS011;8916;47.086;15.920;2022-11-15T20:09:37;74.80;;;33.13;;
17595;SDS011;8916;47.086;15.920;2022-11-15T20:12:06;76.38;;;33.80;;
17595;SDS011;8916;47.086;15.920;2022-11-15T20:14:36;75.90;;;34.15;;
17595;SDS011;8916;47.086;15.920;2022-11-15T20:17:05;71.20;;;33.28;;
17595;SDS011;8916;47.086;15.920;2022-11-15T20:19:36;71.68;;;31.58;;
17595;SDS011;8916;47.086;15.920;2022-11-15T20:22:05;69.90;;;33.08;;
17595;SDS011;8916;47.086;15.920;2022-11-15T20:24:34;75.82;;;32.78;;
17595;SDS011;8916;47.086;15.920;2022-11-15T20:27:04;75.03;;;33.65;;
17595;SDS011;8916;47.086;15.920;2022-11-15T20:29:35;75.93;;;32.55;;
17595;SDS011;8916;47.086;15.920;2022-11-15T20:32:11;72.80;;;34.08;;
17595;SDS011;8916;47.086;15.920;2022-11-15T20:34:43;74.63;;;33.05;;
17595;SDS011;8916;47.086;15.920;2022-11-15T20:37:19;73.77;;;32.50;;
17595;SDS011;8916;47.086;15.920;2022-11-15T20:39:48;70.10;;;32.35;;
17595;SDS011;8916;47.086;15.920;2022-11-15T20:42:18;70.35;;;32.38;;
17595;SDS011;8916;47.086;15.920;2022-11-15T20:44:48;71.60;;;34.38;;
17595;SDS011;8916;47.086;15.920;2022-11-15T20:47:18;67.88;;;31.27;;
17595;SDS011;8916;47.086;15.920;2022-11-15T20:49:50;82.47;;;35.08;;
17595;SDS011;8916;47.086;15.920;2022-11-15T20:52:21;71.97;;;33.92;;
17595;SDS011;8916;47.086;15.920;2022-11-15T20:54:51;85.90;;;37.25;;
17595;SDS011;8916;47.086;15.920;2022-11-15T20:57:20;77.85;;;35.33;;
17595;SDS011;8916;47.086;15.920;2022-11-15T20:59:51;80.88;;;34.15;;
17595;SDS011;8916;47.086;15.920;2022-11-15T21:02:20;73.72;;;34.95;;
17595;SDS011;8916;47.086;15.920;2022-11-15T21:04:49;72.65;;;33.00;;
17595;SDS011;8916;47.086;15.920;2022-11-15T21:07:21;72.55;;;34.10;;
17595;SDS011;8916;47.086;15.920;2022-11-15T21:09:51;74.45;;;33.65;;
17595;SDS011;8916;47.086;15.920;2022-11-15T21:12:38;77.32;;;34.13;;
17595;SDS011;8916;47.086;15.920;2022-11-15T21:15:08;73.53;;;34.38;;
17595;SDS011;8916;47.086;15.920;2022-11-15T21:17:38;72.47;;;33.28;;
17595;SDS011;8916;47.086;15.920;2022-11-15T21:20:08;77.63;;;34.65;;
17595;SDS011;8916;47.086;15.920;2022-11-15T21:22:38;81.82;;;36.63;;
17595;SDS011;8916;47.086;15.920;2022-11-15T21:25:08;75.45;;;34.33;;
17595;SDS011;8916;47.086;15.920;2022-11-15T21:27:39;84.57;;;36.83;;
17595;SDS011;8916;47.086;15.920;2022-11-15T21:30:10;80.53;;;34.70;;
17595;SDS011;8916;47.086;15.920;2022-11-15T21:32:42;79.05;;;35.38;;
17595;SDS011;8916;47.086;15.920;2022-11-15T21:35:11;85.78;;;37.17;;
17595;SDS011;8916;47.086;15.920;2022-11-15T21:37:42;82.95;;;36.35;;
17595;SDS011;8916;47.086;15.920;2022-11-15T21:40:11;83.60;;;37.90;;
17595;SDS011;8916;47.086;15.920;2022-11-15T21:42:41;83.20;;;37.00;;
17595;SDS011;8916;47.086;15.920;2022-11-15T21:45:11;107.45;;;41.85;;
17595;SDS011;8916;47.086;15.920;2022-11-15T21:47:41;87.05;;;35.40;;
17595;SDS011;8916;47.086;15.920;2022-11-15T21:50:12;79.15;;;36.80;;
17595;SDS011;8916;47.086;15.920;2022-11-15T21:52:42;79.93;;;35.63;;
17595;SDS011;8916;47.086;15.920;2022-11-15T21:55:13;75.70;;;34.60;;
17595;SDS011;8916;47.086;15.920;2022-11-15T21:57:42;79.25;;;33.97;;
17595;SDS011;8916;47.086;15.920;2022-11-15T22:00:14;72.97;;;33.70;;
17595;SDS011;8916;47.086;15.920;2022-11-15T22:03:03;77.78;;;34.47;;
17595;SDS011;8916;47.086;15.920;2022-11-15T22:05:33;80.18;;;35.03;;
17595;SDS011;8916;47.086;15.920;2022-11-15T22:08:02;86.72;;;36.08;;
17595;SDS011;8916;47.086;15.920;2022-11-15T22:10:31;78.25;;;35.67;;
17595;SDS011;8916;47.086;15.920;2022-11-15T22:13:00;81.82;;;36.15;;
17595;SDS011;8916;47.086;15.920;2022-11-15T22:15:31;80.75;;;36.00;;
17595;SDS011;8916;47.086;15.920;2022-11-15T22:18:01;81.28;;;34.42;;
17595;SDS011;8916;47.086;15.920;2022-11-15T22:20:30;78.38;;;35.88;;
17595;SDS011;8916;47.086;15.920;2022-11-15T22:23:15;75.13;;;34.92;;
17595;SDS011;8916;47.086;15.920;2022-11-15T22:25:44;89.05;;;41.40;;
17595;SDS011;8916;47.086;15.920;2022-11-15T22:28:14;92.38;;;42.70;;
17595;SDS011;8916;47.086;15.920;2022-11-15T22:30:45;87.35;;;40.35;;
17595;SDS011;8916;47.086;15.920;2022-11-15T22:33:16;88.07;;;38.63;;
17595;SDS011;8916;47.086;15.920;2022-11-15T22:35:47;88.85;;;38.03;;
17595;SDS011;8916;47.086;15.920;2022-11-15T22:38:17;83.00;;;37.38;;
17595;SDS011;8916;47.086;15.920;2022-11-15T22:40:46;79.03;;;36.05;;
17595;SDS011;8916;47.086;15.920;2022-11-15T22:43:17;81.03;;;36.90;;
17595;SDS011;8916;47.086;15.920;2022-11-15T22:45:53;86.47;;;35.90;;
17595;SDS011;8916;47.086;15.920;2022-11-15T22:48:25;88.25;;;37.90;;
17595;SDS011;8916;47.086;15.920;2022-11-15T22:50:56;85.65;;;37.65;;
17595;SDS011;8916;47.086;15.920;2022-11-15T22:53:25;84.13;;;37.67;;
17595;SDS011;8916;47.086;15.920;2022-11-15T22:55:57;86.78;;;36.45;;
17595;SDS011;8916;47.086;15.920;2022-11-15T22:58:29;86.55;;;35.72;;
17595;SDS011;8916;47.086;15.920;2022-11-15T23:01:02;82.72;;;36.13;;
17595;SDS011;8916;47.086;15.920;2022-11-15T23:03:33;74.40;;;33.78;;
17595;SDS011;8916;47.086;15.920;2022-11-15T23:06:03;81.72;;;35.20;;
17595;SDS011;8916;47.086;15.920;2022-11-15T23:08:34;76.25;;;33.92;;
17595;SDS011;8916;47.086;15.920;2022-11-15T23:11:04;88.22;;;36.40;;
17595;SDS011;8916;47.086;15.920;2022-11-15T23:13:51;80.90;;;33.90;;
17595;SDS011;8916;47.086;15.920;2022-11-15T23:16:22;83.78;;;36.67;;
17595;SDS011;8916;47.086;15.920;2022-11-15T23:19:02;81.95;;;35.53;;
17595;SDS011;8916;47.086;15.920;2022-11-15T23:21:35;85.80;;;36.92;;
17595;SDS011;8916;47.086;15.920;2022-11-15T23:24:23;83.70;;;36.00;;
17595;SDS011;8916;47.086;15.920;2022-11-15T23:26:54;88.88;;;35.90;;
17595;SDS011;8916;47.086;15.920;2022-11-15T23:29:26;82.47;;;34.28;;
17595;SDS011;8916;47.086;15.920;2022-11-15T23:31:58;90.57;;;37.38;;
17595;SDS011;8916;47.086;15.920;2022-11-15T23:34:44;96.20;;;39.78;;
17595;SDS011;8916;47.086;15.920;2022-11-15T23:37:14;86.85;;;35.35;;
17595;SDS011;8916;47.086;15.920;2022-11-15T23:39:43;80.75;;;34.60;;
17595;SDS011;8916;47.086;15.920;2022-11-15T23:42:13;85.35;;;36.28;;
17595;SDS011;8916;47.086;15.920;2022-11-15T23:44:46;90.85;;;37.78;;
17595;SDS011;8916;47.086;15.920;2022-11-15T23:47:18;91.97;;;37.10;;
17595;SDS011;8916;47.086;15.920;2022-11-15T23:49:48;86.43;;;36.15;;
17595;SDS011;8916;47.086;15.920;2022-11-15T23:52:17;88.93;;;39.20;;
17595;SDS011;8916;47.086;15.920;2022-11-15T23:54:49;99.05;;;42.50;;
17595;SDS011;8916;47.086;15.920;2022-11-15T23:57:18;92.38;;;38.78;;
17595;SDS011;8916;47.086;15.920;2022-11-15T23:59:48;103.15;;;40.10;;
